Portada
METAR-TAF:

METAR-TAF

Aeroports :

Asheville, Carolina del Nord, Estats Units d'Amèrica

latitud: 35-25-55N, longitud: 082-32-15W, altitud: 660 m

Observació

L'informe es va fer fa 35 minuts, a les 04:54 UTC
Vent 3 kt del Sud-Oest
Temperatura 20°C
Humitat 88%
Pressió 1024 hPa
Visibilitat: 12.9 km
Cel clar

METAR: KAVL 240454Z AUTO 22003KT 8SM CLR 20/18 A3024 RMK AO2 SLP210 T02000183 403060194

Hora: 01:29 (05:29 UTC)

Pronòstic

L'informe es va fer fa 5 hores i 56 minuts, a les 23:33 UTC
Pronòstic vàlid del 24 a les 00 UTC al 24 a les 24 UTC
Vent 5 kt del Sud-Oest
Visibilitat: 10 km
Cel clar
A partir de les 24 a les 0400 UTC
Vent 3 kt del Oest
Visibilitat: 10 km
Cel clar
A partir de les 24 a les 1500 UTC
Vent 8 kt del Nord-Oest
Visibilitat: 10 km
Escasses núvols a una alçada de 5000 ft

TAF: KAVL 232333Z 2400/2424 22005KT P6SM SKC FM240400 28003KT P6SM SKC FM241500 32008KT P6SM FEW050

Observacions i pronòstics meteorològics de més de 4000 aeroports (METAR i TAF).

Les estacions disponibles són els punts grocs i vermells al mapa.

Posi el ratolí al punt desitjat per veure el nom de l'estació.

Feu clic per veure les observacions i els pronòstics meteorològics.

Per canviar el mapa: feu clic els botons verds amb una creu de color negre per apropar; al botó verd amb un guió per allunyar la imatge; o en les fletxes verdes per a mapes adjacents.


METAR-TAF: